sensor_id;sensor_type;location;lat;lon;timestamp;pressure;altitude;pressure_sealevel;temperature;humidity
74181;BME280;62544;50.826;14.354;2022-09-09T00:05:29;98846.63;;;9.78;94.34
74181;BME280;62544;50.826;14.354;2022-09-09T00:09:39;98848.10;;;9.76;94.51
74181;BME280;62544;50.826;14.354;2022-09-09T00:17:47;98846.42;;;9.76;94.49
74181;BME280;62544;50.826;14.354;2022-09-09T00:21:37;98844.47;;;9.78;94.44
74181;BME280;62544;50.826;14.354;2022-09-09T00:29:45;98841.90;;;9.81;94.21
74181;BME280;62544;50.826;14.354;2022-09-09T00:33:42;98841.05;;;9.82;94.11
74181;BME280;62544;50.826;14.354;2022-09-09T00:37:45;98842.16;;;9.81;94.04
74181;BME280;62544;50.826;14.354;2022-09-09T00:49:54;98844.19;;;9.73;93.90
74181;BME280;62544;50.826;14.354;2022-09-09T00:54:08;98845.11;;;9.70;93.87
74181;BME280;62544;50.826;14.354;2022-09-09T00:57:54;98844.84;;;9.65;93.85
74181;BME280;62544;50.826;14.354;2022-09-09T01:01:56;98846.97;;;9.60;94.19
74181;BME280;62544;50.826;14.354;2022-09-09T01:06:11;98849.07;;;9.55;94.03
74181;BME280;62544;50.826;14.354;2022-09-09T01:10:00;98849.61;;;9.50;94.03
74181;BME280;62544;50.826;14.354;2022-09-09T01:14:10;98849.91;;;9.45;93.96
74181;BME280;62544;50.826;14.354;2022-09-09T01:18:05;98851.14;;;9.39;93.61
74181;BME280;62544;50.826;14.354;2022-09-09T01:22:11;98852.42;;;9.30;93.44
74181;BME280;62544;50.826;14.354;2022-09-09T01:26:27;98853.83;;;9.20;93.44
74181;BME280;62544;50.826;14.354;2022-09-09T01:30:11;98855.20;;;9.11;93.38
74181;BME280;62544;50.826;14.354;2022-09-09T01:34:13;98855.58;;;9.03;93.67
74181;BME280;62544;50.826;14.354;2022-09-09T01:38:14;98855.83;;;8.95;93.55
74181;BME280;62544;50.826;14.354;2022-09-09T01:42:16;98856.34;;;8.87;93.59
74181;BME280;62544;50.826;14.354;2022-09-09T01:46:18;98857.00;;;8.81;93.63
74181;BME280;62544;50.826;14.354;2022-09-09T01:50:20;98858.14;;;8.74;93.80
74181;BME280;62544;50.826;14.354;2022-09-09T01:54:23;98858.86;;;8.68;93.72
74181;BME280;62544;50.826;14.354;2022-09-09T02:02:29;98860.94;;;8.56;93.66
74181;BME280;62544;50.826;14.354;2022-09-09T02:06:35;98862.42;;;8.53;93.94
74181;BME280;62544;50.826;14.354;2022-09-09T02:10:37;98863.59;;;8.52;94.07
74181;BME280;62544;50.826;14.354;2022-09-09T02:14:34;98864.40;;;8.53;94.04
74181;BME280;62544;50.826;14.354;2022-09-09T02:18:38;98864.06;;;8.54;94.00
74181;BME280;62544;50.826;14.354;2022-09-09T02:22:37;98862.61;;;8.56;94.13
74181;BME280;62544;50.826;14.354;2022-09-09T02:26:39;98861.55;;;8.58;94.03
74181;BME280;62544;50.826;14.354;2022-09-09T02:30:41;98861.00;;;8.61;94.08
74181;BME280;62544;50.826;14.354;2022-09-09T02:34:47;98860.28;;;8.64;94.05
74181;BME280;62544;50.826;14.354;2022-09-09T02:38:47;98860.06;;;8.66;94.02
74181;BME280;62544;50.826;14.354;2022-09-09T02:42:47;98860.52;;;8.68;94.11
74181;BME280;62544;50.826;14.354;2022-09-09T02:50:54;98859.12;;;8.70;94.24
74181;BME280;62544;50.826;14.354;2022-09-09T02:54:54;98859.80;;;8.71;94.19
74181;BME280;62544;50.826;14.354;2022-09-09T02:58:54;98860.28;;;8.70;94.11
74181;BME280;62544;50.826;14.354;2022-09-09T03:02:57;98859.43;;;8.68;94.08
74181;BME280;62544;50.826;14.354;2022-09-09T03:06:59;98861.03;;;8.67;94.02
74181;BME280;62544;50.826;14.354;2022-09-09T03:11:00;98862.81;;;8.65;94.10
74181;BME280;62544;50.826;14.354;2022-09-09T03:15:03;98865.91;;;8.64;94.02
74181;BME280;62544;50.826;14.354;2022-09-09T03:19:05;98868.42;;;8.62;93.93
74181;BME280;62544;50.826;14.354;2022-09-09T03:23:07;98869.86;;;8.60;93.87
74181;BME280;62544;50.826;14.354;2022-09-09T03:27:09;98870.81;;;8.58;93.79
74181;BME280;62544;50.826;14.354;2022-09-09T03:31:10;98872.45;;;8.55;93.85
74181;BME280;62544;50.826;14.354;2022-09-09T03:35:13;98873.92;;;8.52;93.80
74181;BME280;62544;50.826;14.354;2022-09-09T03:39:14;98876.90;;;8.49;93.70
74181;BME280;62544;50.826;14.354;2022-09-09T03:43:16;98877.56;;;8.46;93.69
74181;BME280;62544;50.826;14.354;2022-09-09T03:47:19;98878.12;;;8.42;93.67
74181;BME280;62544;50.826;14.354;2022-09-09T03:51:20;98878.83;;;8.39;93.73
74181;BME280;62544;50.826;14.354;2022-09-09T03:55:22;98879.46;;;8.36;93.69
74181;BME280;62544;50.826;14.354;2022-09-09T03:59:24;98880.94;;;8.32;93.72
74181;BME280;62544;50.826;14.354;2022-09-09T04:03:27;98883.25;;;8.29;93.67
74181;BME280;62544;50.826;14.354;2022-09-09T04:07:28;98884.72;;;8.25;93.57
74181;BME280;62544;50.826;14.354;2022-09-09T04:11:30;98885.30;;;8.21;93.53
74181;BME280;62544;50.826;14.354;2022-09-09T04:15:32;98888.14;;;8.15;93.65
74181;BME280;62544;50.826;14.354;2022-09-09T04:19:34;98891.72;;;8.10;93.93
74181;BME280;62544;50.826;14.354;2022-09-09T04:23:36;98892.96;;;8.05;93.85
74181;BME280;62544;50.826;14.354;2022-09-09T04:27:38;98893.05;;;8.01;93.74
74181;BME280;62544;50.826;14.354;2022-09-09T04:31:40;98892.66;;;7.96;93.76
74181;BME280;62544;50.826;14.354;2022-09-09T04:35:46;98892.79;;;7.93;93.84
74181;BME280;62544;50.826;14.354;2022-09-09T04:39:44;98893.59;;;7.90;94.09
74181;BME280;62544;50.826;14.354;2022-09-09T04:43:46;98894.45;;;7.88;94.23
74181;BME280;62544;50.826;14.354;2022-09-09T04:47:48;98896.41;;;7.86;94.29
74181;BME280;62544;50.826;14.354;2022-09-09T04:51:50;98897.64;;;7.85;94.26
74181;BME280;62544;50.826;14.354;2022-09-09T04:56:05;98897.49;;;7.85;94.13
74181;BME280;62544;50.826;14.354;2022-09-09T04:59:54;98897.88;;;7.86;94.08
74181;BME280;62544;50.826;14.354;2022-09-09T05:03:56;98898.83;;;7.89;94.34
74181;BME280;62544;50.826;14.354;2022-09-09T05:08:02;98898.94;;;7.97;94.51
74181;BME280;62544;50.826;14.354;2022-09-09T05:12:00;98898.63;;;8.09;94.62
74181;BME280;62544;50.826;14.354;2022-09-09T05:16:02;98899.59;;;8.26;94.39
74181;BME280;62544;50.826;14.354;2022-09-09T05:20:05;98900.28;;;8.44;94.15
74181;BME280;62544;50.826;14.354;2022-09-09T05:24:06;98899.50;;;8.61;93.90
74181;BME280;62544;50.826;14.354;2022-09-09T05:28:08;98898.26;;;8.76;94.19
74181;BME280;62544;50.826;14.354;2022-09-09T05:32:10;98901.29;;;8.89;94.13
74181;BME280;62544;50.826;14.354;2022-09-09T05:36:16;98905.58;;;8.98;94.93
74181;BME280;62544;50.826;14.354;2022-09-09T05:40:14;98907.86;;;9.09;95.64
74181;BME280;62544;50.826;14.354;2022-09-09T05:44:16;98909.42;;;9.28;95.89
74181;BME280;62544;50.826;14.354;2022-09-09T05:48:18;98910.10;;;9.48;95.80
74181;BME280;62544;50.826;14.354;2022-09-09T05:52:20;98910.10;;;9.71;95.82
74181;BME280;62544;50.826;14.354;2022-09-09T05:56:23;98910.65;;;10.05;95.24
74181;BME280;62544;50.826;14.354;2022-09-09T06:00:24;98913.51;;;10.37;94.21
74181;BME280;62544;50.826;14.354;2022-09-09T06:04:26;98916.19;;;10.69;92.29
74181;BME280;62544;50.826;14.354;2022-09-09T06:08:28;98918.48;;;11.01;91.04
74181;BME280;62544;50.826;14.354;2022-09-09T06:12:30;98920.53;;;11.31;89.18
74181;BME280;62544;50.826;14.354;2022-09-09T06:16:32;98923.32;;;11.65;87.21
74181;BME280;62544;50.826;14.354;2022-09-09T06:20:34;98924.07;;;12.00;85.05
74181;BME280;62544;50.826;14.354;2022-09-09T06:24:36;98924.16;;;12.40;83.86
74181;BME280;62544;50.826;14.354;2022-09-09T06:28:38;98924.36;;;12.91;79.97
74181;BME280;62544;50.826;14.354;2022-09-09T06:32:40;98922.67;;;13.47;77.81
74181;BME280;62544;50.826;14.354;2022-09-09T06:36:42;98920.31;;;14.00;77.78
74181;BME280;62544;50.826;14.354;2022-09-09T06:40:53;98919.48;;;14.56;75.89
74181;BME280;62544;50.826;14.354;2022-09-09T06:44:46;98919.95;;;15.04;75.84
74181;BME280;62544;50.826;14.354;2022-09-09T06:48:48;98918.62;;;15.46;74.67
74181;BME280;62544;50.826;14.354;2022-09-09T06:52:50;98916.09;;;15.86;74.55
74181;BME280;62544;50.826;14.354;2022-09-09T06:56:52;98912.14;;;16.30;73.58
74181;BME280;62544;50.826;14.354;2022-09-09T07:01:04;98908.87;;;16.66;74.30
74181;BME280;62544;50.826;14.354;2022-09-09T07:04:56;98907.70;;;16.95;73.58
74181;BME280;62544;50.826;14.354;2022-09-09T07:08:59;98907.09;;;17.16;73.80
74181;BME280;62544;50.826;14.354;2022-09-09T07:13:00;98906.59;;;17.22;74.86
74181;BME280;62544;50.826;14.354;2022-09-09T07:17:02;98907.56;;;17.23;76.50
74181;BME280;62544;50.826;14.354;2022-09-09T07:21:04;98907.23;;;17.15;76.68
74181;BME280;62544;50.826;14.354;2022-09-09T07:25:06;98908.40;;;17.03;76.56
74181;BME280;62544;50.826;14.354;2022-09-09T07:29:08;98910.60;;;16.94;78.08
74181;BME280;62544;50.826;14.354;2022-09-09T07:33:10;98911.69;;;16.95;75.51
74181;BME280;62544;50.826;14.354;2022-09-09T07:37:12;98912.96;;;16.96;75.68
74181;BME280;62544;50.826;14.354;2022-09-09T07:41:15;98914.22;;;17.01;75.98
74181;BME280;62544;50.826;14.354;2022-09-09T07:45:16;98914.71;;;17.15;73.69
74181;BME280;62544;50.826;14.354;2022-09-09T07:49:18;98915.48;;;17.25;74.30
74181;BME280;62544;50.826;14.354;2022-09-09T07:53:20;98914.58;;;17.38;70.68
74181;BME280;62544;50.826;14.354;2022-09-09T07:57:22;98914.18;;;17.49;72.21
74181;BME280;62544;50.826;14.354;2022-09-09T08:01:26;98914.65;;;17.63;72.76
74181;BME280;62544;50.826;14.354;2022-09-09T08:05:26;98915.31;;;17.87;70.67
74181;BME280;62544;50.826;14.354;2022-09-09T08:09:29;98915.52;;;18.01;71.54
74181;BME280;62544;50.826;14.354;2022-09-09T08:13:30;98915.41;;;18.19;70.14
74181;BME280;62544;50.826;14.354;2022-09-09T08:17:32;98915.34;;;18.40;68.67
74181;BME280;62544;50.826;14.354;2022-09-09T08:21:35;98916.27;;;18.56;69.46
74181;BME280;62544;50.826;14.354;2022-09-09T08:25:36;98918.41;;;18.73;69.16
74181;BME280;62544;50.826;14.354;2022-09-09T08:29:38;98920.53;;;18.91;67.75
74181;BME280;62544;50.826;14.354;2022-09-09T08:33:40;98920.56;;;19.19;66.02
74181;BME280;62544;50.826;14.354;2022-09-09T08:37:42;98919.98;;;19.46;65.94
74181;BME280;62544;50.826;14.354;2022-09-09T08:45:50;98921.28;;;19.83;66.04
74181;BME280;62544;50.826;14.354;2022-09-09T08:50:00;98923.58;;;19.90;65.63
74181;BME280;62544;50.826;14.354;2022-09-09T08:53:50;98925.86;;;20.03;65.31
74181;BME280;62544;50.826;14.354;2022-09-09T08:57:53;98928.58;;;20.25;62.95
74181;BME280;62544;50.826;14.354;2022-09-09T09:02:05;98930.15;;;20.34;64.25
74181;BME280;62544;50.826;14.354;2022-09-09T09:14:02;98934.36;;;20.66;62.96
74181;BME280;62544;50.826;14.354;2022-09-09T09:18:03;98932.98;;;20.78;61.95
74181;BME280;62544;50.826;14.354;2022-09-09T09:22:20;98930.03;;;20.90;61.53
74181;BME280;62544;50.826;14.354;2022-09-09T09:26:06;98926.21;;;21.08;61.65
74181;BME280;62544;50.826;14.354;2022-09-09T09:30:26;98920.89;;;21.34;60.44
74181;BME280;62544;50.826;14.354;2022-09-09T09:34:10;98917.07;;;21.60;59.58
74181;BME280;62544;50.826;14.354;2022-09-09T09:38:21;98914.83;;;21.81;59.09
74181;BME280;62544;50.826;14.354;2022-09-09T09:42:16;98912.06;;;22.04;56.17
74181;BME280;62544;50.826;14.354;2022-09-09T09:46:20;98910.85;;;22.17;57.54
74181;BME280;62544;50.826;14.354;2022-09-09T09:50:19;98910.19;;;22.21;58.59
74181;BME280;62544;50.826;14.354;2022-09-09T09:54:26;98909.16;;;22.29;58.00
74181;BME280;62544;50.826;14.354;2022-09-09T09:58:22;98906.08;;;22.42;57.10
74181;BME280;62544;50.826;14.354;2022-09-09T10:02:24;98903.88;;;22.69;55.89
74181;BME280;62544;50.826;14.354;2022-09-09T10:06:33;98903.25;;;22.87;55.91
74181;BME280;62544;50.826;14.354;2022-09-09T10:10:37;98901.62;;;23.16;54.65
74181;BME280;62544;50.826;14.354;2022-09-09T10:14:33;98898.60;;;23.63;52.21
74181;BME280;62544;50.826;14.354;2022-09-09T10:22:34;98892.13;;;24.45;49.38
74181;BME280;62544;50.826;14.354;2022-09-09T10:30:42;98888.46;;;25.00;47.28
74181;BME280;62544;50.826;14.354;2022-09-09T10:34:56;98885.10;;;25.32;46.83
74181;BME280;62544;50.826;14.354;2022-09-09T10:38:44;98882.09;;;25.64;47.29
74181;BME280;62544;50.826;14.354;2022-09-09T10:42:44;98878.30;;;26.07;44.63
74181;BME280;62544;50.826;14.354;2022-09-09T10:54:56;98865.06;;;27.46;40.91
74181;BME280;62544;50.826;14.354;2022-09-09T10:59:10;98860.28;;;27.77;41.36
74181;BME280;62544;50.826;14.354;2022-09-09T11:03:00;98856.17;;;27.55;45.91
74181;BME280;62544;50.826;14.354;2022-09-09T11:06:56;98851.88;;;27.29;44.70
74181;BME280;62544;50.826;14.354;2022-09-09T11:11:08;98848.38;;;27.18;44.84
74181;BME280;62544;50.826;14.354;2022-09-09T11:15:07;98844.73;;;27.08;45.38
74181;BME280;62544;50.826;14.354;2022-09-09T11:19:20;98841.17;;;27.02;41.77
74181;BME280;62544;50.826;14.354;2022-09-09T11:23:14;98838.33;;;26.85;40.86
74181;BME280;62544;50.826;14.354;2022-09-09T11:27:08;98835.02;;;26.79;43.78
74181;BME280;62544;50.826;14.354;2022-09-09T11:43:20;98823.83;;;26.97;42.08
74181;BME280;62544;50.826;14.354;2022-09-09T11:47:26;98820.03;;;27.10;39.78
74181;BME280;62544;50.826;14.354;2022-09-09T11:55:32;98812.44;;;27.27;38.33
74181;BME280;62544;50.826;14.354;2022-09-09T11:59:26;98812.92;;;27.42;37.00
74181;BME280;62544;50.826;14.354;2022-09-09T12:07:36;98811.97;;;28.03;34.09
74181;BME280;62544;50.826;14.354;2022-09-09T12:11:29;98808.58;;;28.51;33.55
74181;BME280;62544;50.826;14.354;2022-09-09T12:15:30;98805.67;;;28.93;34.73
74181;BME280;62544;50.826;14.354;2022-09-09T12:19:32;98800.42;;;29.23;33.88
74181;BME280;62544;50.826;14.354;2022-09-09T12:23:45;98798.35;;;29.47;33.81
74181;BME280;62544;50.826;14.354;2022-09-09T12:27:40;98796.77;;;29.62;32.44
74181;BME280;62544;50.826;14.354;2022-09-09T12:31:40;98793.81;;;29.83;33.42
74181;BME280;62544;50.826;14.354;2022-09-09T12:35:40;98791.58;;;29.73;34.81
74181;BME280;62544;50.826;14.354;2022-09-09T12:39:47;98789.06;;;29.53;36.22
74181;BME280;62544;50.826;14.354;2022-09-09T12:43:44;98786.69;;;29.45;36.43
74181;BME280;62544;50.826;14.354;2022-09-09T12:51:48;98778.22;;;28.87;40.41
74181;BME280;62544;50.826;14.354;2022-09-09T12:55:51;98773.53;;;28.50;39.90
74181;BME280;62544;50.826;14.354;2022-09-09T13:00:02;98770.83;;;28.45;37.84
74181;BME280;62544;50.826;14.354;2022-09-09T13:03:54;98768.44;;;28.58;35.98
74181;BME280;62544;50.826;14.354;2022-09-09T13:08:06;98770.37;;;28.46;38.90
74181;BME280;62544;50.826;14.354;2022-09-09T13:11:58;98770.72;;;28.15;38.18
74181;BME280;62544;50.826;14.354;2022-09-09T13:16:01;98769.43;;;27.96;39.14
74181;BME280;62544;50.826;14.354;2022-09-09T13:20:03;98767.55;;;28.03;37.68
74181;BME280;62544;50.826;14.354;2022-09-09T13:24:05;98766.09;;;27.98;38.34
74181;BME280;62544;50.826;14.354;2022-09-09T13:28:18;98766.24;;;28.25;34.82
74181;BME280;62544;50.826;14.354;2022-09-09T13:32:17;98764.14;;;29.12;31.26
74181;BME280;62544;50.826;14.354;2022-09-09T13:36:11;98762.16;;;30.10;28.24
74181;BME280;62544;50.826;14.354;2022-09-09T13:40:16;98758.69;;;31.24;26.58
74181;BME280;62544;50.826;14.354;2022-09-09T13:44:20;98757.20;;;31.84;28.33
74181;BME280;62544;50.826;14.354;2022-09-09T13:48:17;98755.44;;;31.76;32.43
74181;BME280;62544;50.826;14.354;2022-09-09T13:52:18;98753.36;;;31.56;33.21
74181;BME280;62544;50.826;14.354;2022-09-09T13:56:20;98751.42;;;31.38;33.72
74181;BME280;62544;50.826;14.354;2022-09-09T14:00:22;98749.96;;;30.77;37.85
74181;BME280;62544;50.826;14.354;2022-09-09T14:04:24;98750.92;;;30.05;40.08
74181;BME280;62544;50.826;14.354;2022-09-09T14:08:26;98749.56;;;29.40;41.28
74181;BME280;62544;50.826;14.354;2022-09-09T14:12:28;98747.07;;;28.82;41.50
74181;BME280;62544;50.826;14.354;2022-09-09T14:16:30;98743.94;;;28.23;42.96
74181;BME280;62544;50.826;14.354;2022-09-09T14:20:32;98740.53;;;27.54;44.21
74181;BME280;62544;50.826;14.354;2022-09-09T14:24:34;98737.11;;;26.85;45.34
74181;BME280;62544;50.826;14.354;2022-09-09T14:28:36;98735.72;;;26.24;46.07
74181;BME280;62544;50.826;14.354;2022-09-09T14:32:38;98735.55;;;25.77;45.71
74181;BME280;62544;50.826;14.354;2022-09-09T14:36:40;98735.03;;;25.41;43.81
74181;BME280;62544;50.826;14.354;2022-09-09T14:40:44;98734.33;;;25.05;45.82
74181;BME280;62544;50.826;14.354;2022-09-09T14:44:44;98733.29;;;24.72;46.04
74181;BME280;62544;50.826;14.354;2022-09-09T14:48:46;98733.31;;;24.58;44.95
74181;BME280;62544;50.826;14.354;2022-09-09T14:52:48;98731.92;;;24.55;43.23
74181;BME280;62544;50.826;14.354;2022-09-09T14:56:50;98731.13;;;25.08;39.02
74181;BME280;62544;50.826;14.354;2022-09-09T15:00:52;98732.33;;;25.57;38.57
74181;BME280;62544;50.826;14.354;2022-09-09T15:04:54;98734.67;;;25.66;43.42
74181;BME280;62544;50.826;14.354;2022-09-09T15:08:56;98739.09;;;25.45;45.64
74181;BME280;62544;50.826;14.354;2022-09-09T15:12:58;98742.10;;;25.02;48.53
74181;BME280;62544;50.826;14.354;2022-09-09T15:17:00;98744.51;;;24.66;48.12
74181;BME280;62544;50.826;14.354;2022-09-09T15:21:03;98745.29;;;24.70;45.22
74181;BME280;62544;50.826;14.354;2022-09-09T15:25:04;98744.93;;;24.81;43.57
74181;BME280;62544;50.826;14.354;2022-09-09T15:29:06;98743.47;;;24.83;42.28
74181;BME280;62544;50.826;14.354;2022-09-09T15:33:08;98740.75;;;24.99;41.33
74181;BME280;62544;50.826;14.354;2022-09-09T15:37:11;98735.55;;;25.07;41.18
74181;BME280;62544;50.826;14.354;2022-09-09T15:41:13;98732.23;;;25.04;41.89
74181;BME280;62544;50.826;14.354;2022-09-09T15:45:14;98730.29;;;24.88;41.78
74181;BME280;62544;50.826;14.354;2022-09-09T15:49:17;98729.75;;;24.39;45.81
74181;BME280;62544;50.826;14.354;2022-09-09T15:53:19;98731.33;;;23.77;47.82
74181;BME280;62544;50.826;14.354;2022-09-09T15:57:20;98732.26;;;23.20;48.46
74181;BME280;62544;50.826;14.354;2022-09-09T16:01:23;98732.68;;;22.68;49.73
74181;BME280;62544;50.826;14.354;2022-09-09T16:05:25;98734.06;;;22.21;50.56
74181;BME280;62544;50.826;14.354;2022-09-09T16:09:27;98737.04;;;21.83;51.86
74181;BME280;62544;50.826;14.354;2022-09-09T16:13:29;98739.59;;;21.47;52.70
74181;BME280;62544;50.826;14.354;2022-09-09T16:17:30;98740.14;;;21.18;53.03
74181;BME280;62544;50.826;14.354;2022-09-09T16:21:34;98741.71;;;20.90;53.98
74181;BME280;62544;50.826;14.354;2022-09-09T16:25:34;98743.06;;;20.66;54.78
74181;BME280;62544;50.826;14.354;2022-09-09T16:29:36;98743.24;;;20.46;55.04
74181;BME280;62544;50.826;14.354;2022-09-09T16:33:38;98742.81;;;20.25;55.81
74181;BME280;62544;50.826;14.354;2022-09-09T16:37:40;98742.50;;;20.05;56.81
74181;BME280;62544;50.826;14.354;2022-09-09T16:41:43;98743.75;;;19.86;57.38
74181;BME280;62544;50.826;14.354;2022-09-09T16:45:44;98743.98;;;19.71;58.15
74181;BME280;62544;50.826;14.354;2022-09-09T16:49:46;98744.87;;;19.54;57.87
74181;BME280;62544;50.826;14.354;2022-09-09T16:53:49;98746.70;;;19.38;59.60
74181;BME280;62544;50.826;14.354;2022-09-09T16:57:50;98752.04;;;19.21;60.47
74181;BME280;62544;50.826;14.354;2022-09-09T17:01:52;98755.74;;;19.06;61.05
74181;BME280;62544;50.826;14.354;2022-09-09T17:05:54;98760.02;;;18.91;62.85
74181;BME280;62544;50.826;14.354;2022-09-09T17:09:56;98763.78;;;18.75;64.30
74181;BME280;62544;50.826;14.354;2022-09-09T17:13:59;98768.21;;;18.60;64.98
74181;BME280;62544;50.826;14.354;2022-09-09T17:18:00;98771.47;;;18.46;65.75
74181;BME280;62544;50.826;14.354;2022-09-09T17:22:02;98774.69;;;18.33;66.41
74181;BME280;62544;50.826;14.354;2022-09-09T17:26:05;98775.80;;;18.20;67.32
74181;BME280;62544;50.826;14.354;2022-09-09T17:30:07;98775.70;;;18.05;68.62
74181;BME280;62544;50.826;14.354;2022-09-09T17:34:08;98776.34;;;17.91;68.83
74181;BME280;62544;50.826;14.354;2022-09-09T17:38:10;98777.60;;;17.78;68.79
74181;BME280;62544;50.826;14.354;2022-09-09T17:42:12;98779.52;;;17.65;69.01
74181;BME280;62544;50.826;14.354;2022-09-09T17:46:16;98784.83;;;17.56;70.18
74181;BME280;62544;50.826;14.354;2022-09-09T17:50:16;98795.22;;;17.46;72.07
74181;BME280;62544;50.826;14.354;2022-09-09T17:54:19;98804.44;;;17.37;72.59
74181;BME280;62544;50.826;14.354;2022-09-09T17:58:20;98815.00;;;17.24;78.73
74181;BME280;62544;50.826;14.354;2022-09-09T18:02:22;98819.65;;;17.01;83.12
74181;BME280;62544;50.826;14.354;2022-09-09T18:06:25;98824.40;;;16.74;86.37
74181;BME280;62544;50.826;14.354;2022-09-09T18:10:26;98828.06;;;16.50;86.62
74181;BME280;62544;50.826;14.354;2022-09-09T18:14:29;98831.72;;;16.30;87.55
74181;BME280;62544;50.826;14.354;2022-09-09T18:18:30;98835.80;;;16.13;87.64
74181;BME280;62544;50.826;14.354;2022-09-09T18:22:32;98838.01;;;15.98;87.72
74181;BME280;62544;50.826;14.354;2022-09-09T18:26:34;98840.23;;;15.85;88.71
74181;BME280;62544;50.826;14.354;2022-09-09T18:30:39;98840.77;;;15.71;89.29
74181;BME280;62544;50.826;14.354;2022-09-09T18:34:38;98837.84;;;15.61;89.96
74181;BME280;62544;50.826;14.354;2022-09-09T18:38:41;98835.05;;;15.51;90.24
74181;BME280;62544;50.826;14.354;2022-09-09T18:42:42;98831.04;;;15.41;90.78
74181;BME280;62544;50.826;14.354;2022-09-09T18:46:45;98828.88;;;15.30;90.97
74181;BME280;62544;50.826;14.354;2022-09-09T18:50:46;98836.67;;;15.17;93.17
74181;BME280;62544;50.826;14.354;2022-09-09T18:54:48;98844.36;;;15.03;93.16
74181;BME280;62544;50.826;14.354;2022-09-09T18:58:51;98848.71;;;14.93;92.45
74181;BME280;62544;50.826;14.354;2022-09-09T19:02:52;98851.73;;;14.84;92.29
74181;BME280;62544;50.826;14.354;2022-09-09T19:06:54;98854.13;;;14.73;91.33
74181;BME280;62544;50.826;14.354;2022-09-09T19:10:59;98856.80;;;14.59;91.05
74181;BME280;62544;50.826;14.354;2022-09-09T19:14:58;98860.10;;;14.46;91.82
74181;BME280;62544;50.826;14.354;2022-09-09T19:19:01;98862.08;;;14.37;92.64
74181;BME280;62544;50.826;14.354;2022-09-09T19:23:03;98864.65;;;14.27;92.21
74181;BME280;62544;50.826;14.354;2022-09-09T19:27:04;98868.24;;;14.20;92.16
74181;BME280;62544;50.826;14.354;2022-09-09T19:31:07;98872.51;;;14.14;92.19
74181;BME280;62544;50.826;14.354;2022-09-09T19:35:08;98877.19;;;14.10;92.25
74181;BME280;62544;50.826;14.354;2022-09-09T19:39:10;98882.33;;;14.09;92.48
74181;BME280;62544;50.826;14.354;2022-09-09T19:43:12;98887.42;;;14.07;92.07
74181;BME280;62544;50.826;14.354;2022-09-09T19:47:14;98891.80;;;14.06;92.48
74181;BME280;62544;50.826;14.354;2022-09-09T19:51:17;98895.57;;;14.06;93.14
74181;BME280;62544;50.826;14.354;2022-09-09T19:55:18;98896.04;;;14.07;93.47
74181;BME280;62544;50.826;14.354;2022-09-09T19:59:20;98895.95;;;14.09;93.37
74181;BME280;62544;50.826;14.354;2022-09-09T20:03:22;98895.87;;;14.11;93.32
74181;BME280;62544;50.826;14.354;2022-09-09T20:07:24;98897.66;;;14.12;93.62
74181;BME280;62544;50.826;14.354;2022-09-09T20:11:26;98899.30;;;14.13;93.30
74181;BME280;62544;50.826;14.354;2022-09-09T20:15:28;98901.37;;;14.13;93.31
74181;BME280;62544;50.826;14.354;2022-09-09T20:19:30;98903.44;;;14.12;93.36
74181;BME280;62544;50.826;14.354;2022-09-09T20:23:32;98905.42;;;14.10;93.14
74181;BME280;62544;50.826;14.354;2022-09-09T20:27:34;98905.27;;;14.08;92.99
74181;BME280;62544;50.826;14.354;2022-09-09T20:31:36;98905.95;;;14.06;92.92
74181;BME280;62544;50.826;14.354;2022-09-09T20:35:38;98906.41;;;14.03;92.80
74181;BME280;62544;50.826;14.354;2022-09-09T20:39:40;98906.73;;;13.99;92.72
74181;BME280;62544;50.826;14.354;2022-09-09T20:43:45;98906.86;;;13.95;92.66
74181;BME280;62544;50.826;14.354;2022-09-09T20:47:44;98907.12;;;13.90;92.54
74181;BME280;62544;50.826;14.354;2022-09-09T20:51:46;98908.04;;;13.86;92.70
74181;BME280;62544;50.826;14.354;2022-09-09T20:55:48;98909.52;;;13.83;92.79
74181;BME280;62544;50.826;14.354;2022-09-09T20:59:50;98910.83;;;13.80;92.99
74181;BME280;62544;50.826;14.354;2022-09-09T21:03:52;98911.44;;;13.77;93.29
74181;BME280;62544;50.826;14.354;2022-09-09T21:07:54;98911.78;;;13.75;93.15
74181;BME280;62544;50.826;14.354;2022-09-09T21:11:56;98911.49;;;13.72;93.43
74181;BME280;62544;50.826;14.354;2022-09-09T21:15:58;98911.22;;;13.66;93.05
74181;BME280;62544;50.826;14.354;2022-09-09T21:20:00;98910.38;;;13.58;92.73
74181;BME280;62544;50.826;14.354;2022-09-09T21:24:02;98910.38;;;13.48;92.57
74181;BME280;62544;50.826;14.354;2022-09-09T21:28:04;98910.49;;;13.37;92.83
74181;BME280;62544;50.826;14.354;2022-09-09T21:32:06;98911.54;;;13.28;92.89
74181;BME280;62544;50.826;14.354;2022-09-09T21:36:09;98913.39;;;13.20;92.89
74181;BME280;62544;50.826;14.354;2022-09-09T21:40:10;98915.78;;;13.17;93.07
74181;BME280;62544;50.826;14.354;2022-09-09T21:44:12;98917.76;;;13.15;92.93
74181;BME280;62544;50.826;14.354;2022-09-09T21:48:14;98920.72;;;13.14;93.26
74181;BME280;62544;50.826;14.354;2022-09-09T21:52:16;98921.67;;;13.16;93.51
74181;BME280;62544;50.826;14.354;2022-09-09T21:56:18;98921.55;;;13.19;93.41
74181;BME280;62544;50.826;14.354;2022-09-09T22:00:20;98920.61;;;13.21;93.95
74181;BME280;62544;50.826;14.354;2022-09-09T22:04:22;98920.11;;;13.25;94.26
74181;BME280;62544;50.826;14.354;2022-09-09T22:08:24;98918.42;;;13.29;94.14
74181;BME280;62544;50.826;14.354;2022-09-09T22:12:26;98916.48;;;13.33;94.09
74181;BME280;62544;50.826;14.354;2022-09-09T22:16:28;98913.39;;;13.38;93.87
74181;BME280;62544;50.826;14.354;2022-09-09T22:20:30;98909.73;;;13.41;94.09
74181;BME280;62544;50.826;14.354;2022-09-09T22:24:32;98905.59;;;13.44;93.96
74181;BME280;62544;50.826;14.354;2022-09-09T22:28:35;98901.48;;;13.47;93.85